スィクティフカル の空港の天気 - METARとTAF

Syktyvkar ( UUYY / SCW ) - ロシア スィクティフカル
飛行場実況気象(Metar)
観測時間01/19 22:00 MSK (01/19 19:00 UTC)
風向・風速南南東 2m/s
視程10km以上
天気現象
なし
気温-20℃
湿度84%
気圧1034hPa
METARUUYY 191900Z 15002MPS CAVOK M20/M22 Q1034 R01/CLRD61 NOSIG RMK QFE766/1021
過去の天気等 Google飛行場航空写真 Wunderground天気予報

過去48時間のMETAR

飛行場予報(TAF)
発表時間: 1/19 20:00 MSK (1/19 17:00 UTC)
予報対象時間: 19日21時 MSK ~ 20日21時 MSK
風向・風速南南東 3m/s 瞬間風速 8m/s
視程4,000m
天気現象もや
全天の8割程度の雲 雲底高度 340m
19日21時 MSK ~ 20日9時 MSK に一時的に
視程2,100m
天気現象弱いしゅう雪 もや
全天の8割程度の雲 雲底高度 150m
全天の4割程度の積乱雲 雲底高度 370m
20日9時 MSK から
風向・風速南東 3m/s 瞬間風速 9m/s
視程6,000m
全天の8割程度の雲 雲底高度 340m
全天の8割程度の積乱雲 雲底高度 460m
20日9時 MSK ~ 20日21時 MSK に一時的に
風向・風速東南東 5m/s 瞬間風速 11m/s
視程3,100m
天気現象弱いしゅう雪
全天の8割程度の積乱雲 雲底高度 370m
TAF UUYY 191700Z 1918/2018 16003G08MPS 4000 BR BKN011
TEMPO 1918/2006 2100 -SHSN BR BKN005 SCT012CB
FM200600 13003G09MPS 6000 BKN011 BKN015CB
TEMPO 2006/2018 12005G11MPS 3100 -SHSN BKN012CB